Time;durP1;ratioP1;P1;durP2;ratioP2;P2;SDS_P1;SDS_P2;PMS_P1;PMS_P2;Temp;Humidity;BMP_temperature;BMP_pressure;BME280_temperature;BME280_humidity;BME280_pressure;Samples;Min_cycle;Max_cycle;Signal;HPM_P1;HPM_P2
2023/01/02 00:00:27;;;;;;;11.55;5.43;;;11.20;99.90;;;;;;5018813;28;20429;-75
2023/01/02 00:02:53;;;;;;;8.73;5.72;;;11.30;99.90;;;;;;5029777;28;20032;-82
2023/01/02 00:05:20;;;;;;;12.38;5.40;;;11.30;99.90;;;;;;5028476;28;20037;-82
2023/01/02 00:07:46;;;;;;;12.70;5.65;;;11.30;99.90;;;;;;5014738;28;20037;-81
2023/01/02 00:10:12;;;;;;;14.43;6.22;;;11.20;99.90;;;;;;5027965;28;20045;-79
2023/01/02 00:12:39;;;;;;;8.93;4.97;;;11.30;99.90;;;;;;5038130;28;20095;-81
2023/01/02 00:15:05;;;;;;;13.18;6.18;;;11.30;99.90;;;;;;5030149;28;20037;-82
2023/01/02 00:17:31;;;;;;;8.90;5.47;;;11.30;99.90;;;;;;5013595;28;20045;-81
2023/01/02 00:19:58;;;;;;;8.85;4.63;;;11.30;99.90;;;;;;5026990;28;20072;-77
2023/01/02 00:22:24;;;;;;;9.60;5.70;;;11.40;99.90;;;;;;5013665;28;20042;-81
2023/01/02 00:24:50;;;;;;;13.43;6.40;;;11.40;99.90;;;;;;5034757;28;20414;-79
2023/01/02 00:27:17;;;;;;;11.73;7.00;;;11.40;99.90;;;;;;5013981;28;20510;-76
2023/01/02 00:29:43;;;;;;;10.52;5.95;;;11.40;99.90;;;;;;5031082;28;20033;-79
2023/01/02 00:32:09;;;;;;;11.20;6.00;;;11.40;99.90;;;;;;5028608;28;20048;-81
2023/01/02 00:34:54;;;;;;;12.48;5.45;;;11.50;99.90;;;;;;5040760;28;20103;-82
2023/01/02 00:37:21;;;;;;;12.38;5.60;;;11.50;99.90;;;;;;5030648;28;20060;-81
2023/01/02 00:39:47;;;;;;;15.65;6.68;;;11.50;99.90;;;;;;5031680;28;20048;-77
2023/01/02 00:42:13;;;;;;;11.30;5.90;;;11.50;99.90;;;;;;5008580;28;20404;-80
2023/01/02 00:44:39;;;;;;;12.90;6.55;;;11.50;99.90;;;;;;5038974;28;20040;-82
2023/01/02 00:47:06;;;;;;;8.60;4.95;;;11.60;99.90;;;;;;5031120;28;20042;-82
2023/01/02 00:49:32;;;;;;;9.63;5.97;;;11.60;99.90;;;;;;5031186;28;20492;-81
2023/01/02 00:51:58;;;;;;;7.95;4.72;;;11.60;99.90;;;;;;5000937;28;20076;-83
2023/01/02 00:54:25;;;;;;;10.95;5.20;;;11.60;99.90;;;;;;5036186;28;20033;-81
2023/01/02 00:56:51;;;;;;;10.15;4.63;;;11.60;99.90;;;;;;5037778;28;20042;-79
2023/01/02 00:59:17;;;;;;;13.52;4.90;;;11.60;99.90;;;;;;5016673;28;20049;-82
2023/01/02 01:01:43;;;;;;;13.32;5.47;;;11.60;99.90;;;;;;5024609;28;20484;-82
2023/01/02 01:04:10;;;;;;;8.93;4.38;;;11.60;99.90;;;;;;5010988;28;20037;-82
2023/01/02 01:06:36;;;;;;;7.90;4.95;;;11.60;99.90;;;;;;5011315;28;20038;-78
2023/01/02 01:09:02;;;;;;;8.65;4.88;;;11.60;99.90;;;;;;5030649;28;20038;-82
2023/01/02 01:11:29;;;;;;;8.45;4.22;;;11.60;99.90;;;;;;5022529;28;20052;-80
2023/01/02 01:13:56;;;;;;;8.15;4.43;;;11.60;99.90;;;;;;5031092;28;20068;-80
2023/01/02 01:16:24;;;;;;;10.20;4.57;;;11.70;99.90;;;;;;5027567;28;20037;-83
2023/01/02 01:18:54;;;;;;;8.20;4.60;;;11.70;99.90;;;;;;5027197;28;20049;-81
2023/01/02 01:21:21;;;;;;;13.77;6.07;;;11.60;99.90;;;;;;5003347;28;20030;-79
2023/01/02 01:23:55;;;;;;;11.63;6.07;;;11.70;99.90;;;;;;5028214;28;20056;-82
2023/01/02 01:26:22;;;;;;;11.30;5.22;;;11.70;99.90;;;;;;5027427;28;20044;-80
2023/01/02 01:28:51;;;;;;;11.68;5.38;;;11.70;99.90;;;;;;4997889;28;20037;-82
2023/01/02 01:31:17;;;;;;;7.63;4.40;;;11.70;99.90;;;;;;5011178;28;20060;-82
2023/01/02 01:33:44;;;;;;;10.40;5.35;;;11.80;99.90;;;;;;5027372;28;20048;-79
2023/01/02 01:36:13;;;;;;;12.05;4.85;;;11.70;99.90;;;;;;5040520;28;20028;-81
2023/01/02 01:38:40;;;;;;;14.52;5.75;;;11.80;99.90;;;;;;5027777;28;20041;-76
2023/01/02 01:41:08;;;;;;;8.93;5.03;;;11.80;99.90;;;;;;5011148;28;20042;-81
2023/01/02 01:43:50;;;;;;;9.73;5.50;;;11.80;99.90;;;;;;5035182;28;20041;-83
2023/01/02 01:46:34;;;;;;;10.60;5.75;;;11.80;99.90;;;;;;5012547;28;20052;-80
2023/01/02 01:49:08;;;;;;;9.68;5.07;;;11.80;99.90;;;;;;5019012;28;20037;-79
2023/01/02 01:52:03;;;;;;;8.90;5.05;;;11.80;99.90;;;;;;5031171;28;20412;-82
2023/01/02 01:54:36;;;;;;;8.90;5.05;;;11.80;99.90;;;;;;5027944;28;20419;-81
2023/01/02 01:57:05;;;;;;;;;;;11.80;99.90;;;;;;5035432;28;20111;-80
2023/01/02 01:59:33;;;;;;;6.22;3.10;;;11.80;99.90;;;;;;5028128;28;19921;-81
2023/01/02 02:01:59;;;;;;;9.07;4.60;;;11.80;99.90;;;;;;5022700;28;20037;-80
2023/01/02 02:04:26;;;;;;;8.60;3.70;;;11.80;99.90;;;;;;5031854;28;20518;-81
2023/01/02 02:06:53;;;;;;;9.10;4.72;;;11.80;99.90;;;;;;5033834;28;20037;-81
2023/01/02 02:09:28;;;;;;;8.75;4.35;;;11.80;99.90;;;;;;5010734;28;20037;-82
2023/01/02 02:11:55;;;;;;;8.15;3.80;;;11.80;99.90;;;;;;5006387;28;20041;-81
2023/01/02 02:14:21;;;;;;;7.03;4.32;;;11.80;99.90;;;;;;5021995;28;20049;-79
2023/01/02 02:16:54;;;;;;;8.18;4.72;;;11.80;99.90;;;;;;5027214;28;20084;-83
2023/01/02 02:19:50;;;;;;;10.70;4.20;;;11.80;99.90;;;;;;5028178;28;20049;-79
2023/01/02 02:22:45;;;;;;;8.95;4.45;;;11.80;99.90;;;;;;5010098;28;20474;-79
2023/01/02 02:25:35;;;;;;;11.43;5.50;;;11.80;99.90;;;;;;5010147;28;20396;-81
2023/01/02 02:28:07;;;;;;;13.98;5.05;;;11.80;99.90;;;;;;5025533;28;20053;-81
2023/01/02 02:30:40;;;;;;;12.63;5.07;;;11.80;99.90;;;;;;5023735;28;20500;-82
2023/01/02 02:33:42;;;;;;;11.15;4.55;;;11.80;99.90;;;;;;5030092;28;20068;-83
2023/01/02 02:36:41;;;;;;;14.38;5.95;;;11.80;99.90;;;;;;5033768;28;20052;-83
2023/01/02 02:39:23;;;;;;;11.45;5.22;;;11.80;99.90;;;;;;5018937;28;20045;-83
2023/01/02 02:42:32;;;;;;;8.60;4.60;;;11.90;99.90;;;;;;5006181;28;20041;-77
2023/01/02 02:45:15;;;;;;;9.18;4.90;;;11.90;99.90;;;;;;5009425;28;20037;-82
2023/01/02 02:48:01;;;;;;;6.60;3.22;;;11.90;99.90;;;;;;5016420;28;20054;-79
2023/01/02 02:51:05;;;;;;;9.30;4.43;;;11.90;99.90;;;;;;5028996;28;20052;-80
2023/01/02 02:53:39;;;;;;;7.43;4.00;;;11.90;99.90;;;;;;4978597;28;20046;-80
2023/01/02 02:56:08;;;;;;;8.13;4.57;;;11.90;99.90;;;;;;5012314;28;20037;-81
2023/01/02 02:58:36;;;;;;;8.43;3.90;;;11.90;99.90;;;;;;5030122;28;20046;-79
2023/01/02 03:01:06;;;;;;;11.57;4.47;;;12.00;99.90;;;;;;5018251;28;20045;-84
2023/01/02 03:03:33;;;;;;;9.27;4.35;;;12.00;99.90;;;;;;5031616;28;20060;-81
2023/01/02 03:06:17;;;;;;;13.05;4.75;;;12.00;99.90;;;;;;5029935;28;20040;-80
2023/01/02 03:08:46;;;;;;;6.60;3.97;;;12.00;99.90;;;;;;5036543;28;20029;-82
2023/01/02 03:11:14;;;;;;;10.13;3.90;;;12.00;99.90;;;;;;5036255;28;20389;-80
2023/01/02 03:14:05;;;;;;;6.80;3.92;;;12.00;99.90;;;;;;5030455;28;20150;-83
2023/01/02 03:16:42;;;;;;;9.02;4.38;;;12.00;99.90;;;;;;5028907;28;20618;-80
2023/01/02 03:19:10;;;;;;;10.02;3.75;;;12.00;99.90;;;;;;5030935;28;20057;-81
2023/01/02 03:21:47;;;;;;;13.27;4.60;;;12.00;99.90;;;;;;5009484;28;20048;-79
2023/01/02 03:24:17;;;;;;;12.02;4.25;;;12.00;99.90;;;;;;5017435;28;20060;-80
2023/01/02 03:26:48;;;;;;;9.63;4.55;;;12.10;99.90;;;;;;5029522;28;20409;-83
2023/01/02 03:29:29;;;;;;;8.05;4.63;;;12.00;99.90;;;;;;5040550;28;20026;-83
2023/01/02 03:31:58;;;;;;;11.43;5.07;;;12.00;99.90;;;;;;5010695;28;20029;-79
2023/01/02 03:34:30;;;;;;;10.63;4.15;;;12.00;99.90;;;;;;5010527;28;20040;-83
2023/01/02 03:37:14;;;;;;;8.65;5.53;;;12.00;99.90;;;;;;5024941;28;20042;-83
2023/01/02 03:39:47;;;;;;;12.10;5.07;;;12.10;99.90;;;;;;5015870;28;20041;-82
2023/01/02 03:42:21;;;;;;;11.40;4.38;;;12.10;99.90;;;;;;5023903;28;20025;-82
2023/01/02 03:45:21;;;;;;;14.05;4.75;;;12.10;99.90;;;;;;5035995;28;20037;-84
2023/01/02 03:47:50;;;;;;;10.80;4.43;;;12.10;99.90;;;;;;5023906;28;20045;-83
2023/01/02 03:50:33;;;;;;;9.30;4.15;;;12.10;99.90;;;;;;5031124;28;20045;-81
2023/01/02 03:53:00;;;;;;;9.52;3.80;;;12.10;99.90;;;;;;5037095;28;20041;-83
2023/01/02 03:55:30;;;;;;;12.70;5.05;;;12.10;99.90;;;;;;5038328;28;20033;-84
2023/01/02 03:58:11;;;;;;;8.75;5.10;;;12.20;99.90;;;;;;5015588;28;20131;-81
2023/01/02 04:00:51;;;;;;;8.27;4.57;;;12.20;99.90;;;;;;5028768;28;20037;-83
2023/01/02 04:03:29;;;;;;;16.33;4.28;;;12.20;99.90;;;;;;5008780;28;20029;-83
2023/01/02 04:06:18;;;;;;;12.02;4.70;;;12.20;99.90;;;;;;5034868;28;20524;-82
2023/01/02 04:09:14;;;;;;;10.55;4.88;;;12.20;99.90;;;;;;5025405;28;20037;-82
2023/01/02 04:11:45;;;;;;;7.50;3.97;;;12.20;99.90;;;;;;5006016;28;20499;-80
2023/01/02 04:14:37;;;;;;;12.18;4.18;;;12.20;99.90;;;;;;5018228;28;20040;-79
2023/01/02 04:17:07;;;;;;;8.75;4.63;;;12.20;99.90;;;;;;5005705;28;20423;-84
2023/01/02 04:19:53;;;;;;;11.02;5.47;;;12.30;99.90;;;;;;5033188;28;20543;-83
2023/01/02 04:22:33;;;;;;;8.98;5.25;;;12.30;99.90;;;;;;5023432;28;20510;-84
2023/01/02 04:25:12;;;;;;;11.80;4.47;;;12.20;99.90;;;;;;5030588;28;20472;-81
2023/01/02 04:27:58;;;;;;;13.90;5.00;;;12.20;99.90;;;;;;5023228;28;20067;-81
2023/01/02 04:30:27;;;;;;;11.15;4.72;;;12.20;99.90;;;;;;5036665;28;20033;-84
2023/01/02 04:32:56;;;;;;;7.18;3.83;;;12.30;99.90;;;;;;5019889;28;20033;-82
2023/01/02 04:35:23;;;;;;;8.88;3.88;;;12.30;99.90;;;;;;5028889;28;20033;-84
2023/01/02 04:37:50;;;;;;;7.03;3.78;;;12.30;99.90;;;;;;5041840;28;20036;-84
2023/01/02 04:40:27;;;;;;;10.88;4.35;;;12.30;99.90;;;;;;5027074;28;20041;-78
2023/01/02 04:42:54;;;;;;;7.22;3.85;;;12.30;99.90;;;;;;5025139;28;20369;-81
2023/01/02 04:45:21;;;;;;;9.90;3.85;;;12.30;99.90;;;;;;4996625;28;20369;-82
2023/01/02 04:47:48;;;;;;;12.52;4.18;;;12.30;99.90;;;;;;5030246;28;20041;-84
2023/01/02 04:50:15;;;;;;;10.27;5.03;;;12.30;99.90;;;;;;5002813;28;20400;-81
2023/01/02 04:52:41;;;;;;;8.85;4.75;;;12.20;99.90;;;;;;5017023;28;20406;-86
2023/01/02 04:55:08;;;;;;;10.13;5.28;;;12.30;99.90;;;;;;5037680;28;20021;-84
2023/01/02 04:57:36;;;;;;;6.07;4.07;;;12.30;99.90;;;;;;5013431;28;20052;-85
2023/01/02 05:00:04;;;;;;;9.05;4.13;;;12.20;99.90;;;;;;5031187;28;20511;-81
2023/01/02 05:02:38;;;;;;;8.73;4.18;;;12.30;99.90;;;;;;5000091;28;20040;-83
2023/01/02 05:05:05;;;;;;;10.80;4.30;;;12.30;99.90;;;;;;5014078;28;20531;-82
2023/01/02 05:07:35;;;;;;;12.50;4.60;;;12.30;99.90;;;;;;5038172;28;20037;-78
2023/01/02 05:10:03;;;;;;;6.03;3.35;;;12.20;99.90;;;;;;5027042;28;20036;-82
2023/01/02 05:12:33;;;;;;;9.20;4.13;;;12.20;99.90;;;;;;5023107;28;20048;-79
2023/01/02 05:15:00;;;;;;;11.20;4.40;;;12.30;99.90;;;;;;5029208;28;20044;-83
2023/01/02 05:17:26;;;;;;;8.80;4.78;;;12.30;99.90;;;;;;5039745;28;20041;-80
2023/01/02 05:19:52;;;;;;;9.80;5.28;;;12.30;99.90;;;;;;5029309;28;20045;-78
2023/01/02 05:25:04;;;;;;;9.80;4.15;;;12.20;99.90;;;;;;5029749;28;20041;-81
2023/01/02 05:27:31;;;;;;;9.13;4.30;;;12.30;99.90;;;;;;5030331;28;20044;-83
2023/01/02 05:29:57;;;;;;;9.98;4.97;;;12.30;99.90;;;;;;5035369;28;20040;-76
2023/01/02 05:32:23;;;;;;;8.40;4.13;;;12.30;99.90;;;;;;5034291;28;20543;-81
2023/01/02 05:34:49;;;;;;;9.98;6.53;;;12.30;99.90;;;;;;5030201;28;20040;-84
2023/01/02 05:37:16;;;;;;;8.52;4.45;;;12.30;99.90;;;;;;5011529;28;20037;-80
2023/01/02 05:39:42;;;;;;;10.27;4.20;;;12.30;99.90;;;;;;5019943;28;20048;-80
2023/01/02 05:42:08;;;;;;;8.88;4.45;;;12.30;99.90;;;;;;5037340;28;20488;-81
2023/01/02 05:44:35;;;;;;;7.45;4.32;;;12.30;99.90;;;;;;5012532;28;20040;-79
2023/01/02 05:47:01;;;;;;;15.07;8.98;;;12.30;99.90;;;;;;5012424;28;20056;-81
2023/01/02 05:49:27;;;;;;;10.90;5.95;;;12.30;99.90;;;;;;5021558;28;20416;-86
2023/01/02 05:51:53;;;;;;;12.18;4.78;;;12.30;99.90;;;;;;5005408;28;20484;-81
2023/01/02 05:54:20;;;;;;;7.85;4.50;;;12.30;99.90;;;;;;5027264;28;20033;-83
2023/01/02 05:56:46;;;;;;;9.85;4.70;;;12.30;99.90;;;;;;5001011;28;20404;-82
2023/01/02 05:59:13;;;;;;;6.68;3.97;;;12.30;99.90;;;;;;5035333;28;20048;-85
2023/01/02 06:01:40;;;;;;;10.80;4.13;;;12.30;99.90;;;;;;4989664;28;20472;-81
2023/01/02 06:04:06;;;;;;;5.40;3.55;;;12.30;99.90;;;;;;5021067;28;20032;-81
2023/01/02 06:06:38;;;;;;;12.30;4.72;;;12.30;99.90;;;;;;5035547;28;20035;-84
2023/01/02 06:09:06;;;;;;;;;;;12.30;99.90;;;;;;5039309;28;20523;-82
2023/01/02 06:11:33;;;;;;;9.63;4.60;;;12.30;99.90;;;;;;5021186;28;19917;-78
2023/01/02 06:14:00;;;;;;;10.90;4.70;;;12.30;99.90;;;;;;5031480;28;20037;-83
2023/01/02 06:16:26;;;;;;;10.67;4.37;;;12.30;99.90;;;;;;4996661;28;1111917;-82
2023/01/02 06:18:52;;;;;;;9.18;4.50;;;12.30;99.90;;;;;;5038033;28;20037;-84
2023/01/02 06:21:20;;;;;;;10.90;4.43;;;12.30;99.90;;;;;;4992712;28;20040;-81
2023/01/02 06:23:47;;;;;;;8.57;4.32;;;12.30;99.90;;;;;;5035063;28;20033;-84
2023/01/02 06:26:19;;;;;;;8.43;4.03;;;12.30;99.90;;;;;;5035941;28;20075;-82
2023/01/02 06:28:49;;;;;;;10.13;3.83;;;12.40;99.90;;;;;;5016599;28;20037;-79
2023/01/02 06:31:17;;;;;;;9.40;4.35;;;12.30;99.90;;;;;;5008517;28;20057;-80
2023/01/02 06:33:44;;;;;;;9.20;4.22;;;12.40;99.90;;;;;;5040272;28;20034;-79
2023/01/02 06:36:15;;;;;;;8.60;4.65;;;12.30;99.90;;;;;;5035533;28;20033;-81
2023/01/02 06:38:42;;;;;;;7.93;4.82;;;12.30;99.90;;;;;;5018258;28;20601;-80
2023/01/02 06:41:09;;;;;;;12.52;5.07;;;12.30;99.90;;;;;;5025185;28;20044;-84
2023/01/02 06:43:44;;;;;;;9.00;5.03;;;12.20;99.90;;;;;;5018762;28;20518;-85
2023/01/02 06:46:12;;;;;;;9.48;4.97;;;12.20;99.90;;;;;;5059380;28;20037;-82
2023/01/02 06:48:39;;;;;;;8.80;3.92;;;12.20;99.90;;;;;;5048984;28;20042;-80
2023/01/02 06:51:09;;;;;;;7.95;4.78;;;12.20;99.90;;;;;;5036231;28;20037;-80
2023/01/02 06:53:37;;;;;;;6.68;3.65;;;12.20;99.90;;;;;;5036150;28;20563;-82
2023/01/02 06:56:04;;;;;;;5.18;3.13;;;12.10;99.90;;;;;;5022108;28;20040;-82
2023/01/02 06:58:32;;;;;;;3.83;2.08;;;12.00;99.90;;;;;;5035443;28;20049;-81
2023/01/02 07:01:08;;;;;;;2.38;0.70;;;11.90;99.90;;;;;;5013563;28;20040;-81
2023/01/02 07:03:35;;;;;;;2.20;0.60;;;11.70;99.90;;;;;;5028809;28;20500;-81
2023/01/02 07:06:08;;;;;;;2.25;0.60;;;11.50;99.90;;;;;;5026310;28;20044;-81
2023/01/02 07:08:34;;;;;;;0.90;0.43;;;11.40;99.90;;;;;;5036826;28;20029;-82
2023/01/02 07:11:12;;;;;;;1.05;0.45;;;11.30;99.90;;;;;;5029248;28;20492;-80
2023/01/02 07:13:40;;;;;;;0.60;0.30;;;11.20;99.90;;;;;;5006808;28;20033;-81
2023/01/02 07:16:08;;;;;;;0.80;0.40;;;11.20;99.90;;;;;;5042084;28;20512;-81
2023/01/02 07:18:35;;;;;;;0.63;0.32;;;11.10;99.90;;;;;;5033462;28;20420;-83
2023/01/02 07:21:03;;;;;;;0.50;0.40;;;11.00;99.90;;;;;;5026834;28;20459;-79
2023/01/02 07:23:29;;;;;;;1.00;0.60;;;10.90;99.90;;;;;;5029169;28;20395;-82
2023/01/02 07:25:58;;;;;;;1.15;0.50;;;10.80;99.90;;;;;;5014199;28;20030;-80
2023/01/02 07:28:27;;;;;;;1.52;1.08;;;10.70;99.90;;;;;;5032967;28;20037;-81
2023/01/02 07:30:58;;;;;;;1.58;0.88;;;10.70;99.90;;;;;;4993877;28;20045;-80
2023/01/02 07:33:27;;;;;;;1.20;0.80;;;10.70;99.90;;;;;;5030215;28;20030;-82
2023/01/02 07:36:02;;;;;;;1.58;0.90;;;10.60;99.90;;;;;;5015521;28;20041;-82
2023/01/02 07:38:28;;;;;;;1.67;1.02;;;10.60;99.90;;;;;;5033056;28;20452;-79
2023/01/02 07:40:54;;;;;;;2.40;1.60;;;10.50;99.90;;;;;;5029932;28;20033;-83
2023/01/02 07:43:22;;;;;;;1.67;1.13;;;10.50;99.90;;;;;;5000081;28;20044;-80
2023/01/02 07:45:48;;;;;;;1.73;1.42;;;10.50;99.90;;;;;;5014421;28;20044;-82
2023/01/02 07:48:15;;;;;;;1.70;1.20;;;10.40;99.90;;;;;;5031555;28;20029;-81
2023/01/02 07:50:41;;;;;;;2.53;1.50;;;10.40;99.90;;;;;;5028965;28;20056;-81
2023/01/02 07:53:07;;;;;;;2.65;1.92;;;10.40;99.90;;;;;;5032850;28;20038;-83
2023/01/02 07:55:34;;;;;;;1.60;1.33;;;10.40;99.90;;;;;;5032165;28;20037;-82
2023/01/02 07:58:00;;;;;;;2.25;1.98;;;10.30;99.90;;;;;;5016004;28;20026;-80
2023/01/02 08:00:26;;;;;;;3.05;2.45;;;10.40;99.90;;;;;;5009380;28;20041;-81
2023/01/02 08:02:53;;;;;;;5.43;3.58;;;10.30;99.90;;;;;;5029622;28;20391;-79
2023/01/02 08:05:20;;;;;;;3.15;2.85;;;10.30;99.90;;;;;;5006154;28;20036;-79
2023/01/02 08:07:47;;;;;;;3.30;2.90;;;10.30;99.90;;;;;;5041411;28;20040;-78
2023/01/02 08:10:13;;;;;;;4.57;4.00;;;10.30;99.90;;;;;;5006648;28;20048;-79
2023/01/02 08:12:40;;;;;;;4.70;4.30;;;10.40;99.90;;;;;;5035998;28;20040;-79
2023/01/02 08:15:06;;;;;;;5.82;4.95;;;10.40;99.90;;;;;;5035408;28;20029;-81
2023/01/02 08:17:33;;;;;;;7.35;6.53;;;10.40;99.90;;;;;;5012373;28;20049;-80
2023/01/02 08:19:59;;;;;;;5.85;5.25;;;10.40;99.90;;;;;;5036222;28;20041;-77
2023/01/02 08:22:26;;;;;;;6.75;5.95;;;10.40;99.90;;;;;;5012448;28;20404;-82
2023/01/02 08:24:52;;;;;;;5.05;4.55;;;10.30;99.90;;;;;;5022130;28;20036;-82
2023/01/02 08:27:19;;;;;;;6.45;5.45;;;10.30;99.90;;;;;;5011348;28;20033;-80
2023/01/02 08:29:45;;;;;;;6.43;5.57;;;10.30;99.90;;;;;;5029397;28;20045;-82
2023/01/02 08:32:11;;;;;;;9.30;7.63;;;10.30;99.90;;;;;;5011212;28;20029;-81
2023/01/02 08:34:38;;;;;;;8.40;7.15;;;10.30;99.90;;;;;;5033271;28;20042;-81
2023/01/02 08:37:04;;;;;;;9.45;6.82;;;10.30;99.90;;;;;;5005521;28;20037;-81
2023/01/02 08:39:30;;;;;;;9.23;6.95;;;10.30;99.90;;;;;;5021624;28;20037;-80
2023/01/02 08:41:57;;;;;;;9.70;7.30;;;10.30;99.90;;;;;;5009173;28;20029;-82
2023/01/02 08:44:23;;;;;;;9.75;6.85;;;10.30;99.90;;;;;;5014702;28;20045;-82
2023/01/02 08:46:50;;;;;;;8.85;6.40;;;10.30;99.90;;;;;;5003298;28;20048;-82
2023/01/02 08:49:16;;;;;;;9.48;6.57;;;10.20;99.90;;;;;;5034630;28;20037;-80
2023/01/02 08:51:43;;;;;;;8.65;6.90;;;10.20;99.90;;;;;;5035697;28;20506;-83
2023/01/02 08:54:09;;;;;;;7.80;5.97;;;10.20;99.90;;;;;;5020093;28;20056;-83
2023/01/02 08:56:36;;;;;;;8.90;5.50;;;10.10;99.90;;;;;;5015979;28;20034;-82
2023/01/02 08:59:06;;;;;;;8.93;5.70;;;10.10;99.90;;;;;;5029624;28;20041;-81
2023/01/02 09:01:33;;;;;;;7.35;5.38;;;10.10;99.90;;;;;;5029347;28;20377;-80
2023/01/02 09:04:00;;;;;;;7.10;5.13;;;10.10;99.90;;;;;;5036093;28;20499;-81
2023/01/02 09:06:29;;;;;;;7.22;5.32;;;10.10;99.90;;;;;;5030089;28;20032;-78
2023/01/02 09:08:57;;;;;;;8.30;5.78;;;10.10;99.90;;;;;;5030159;28;20041;-84
2023/01/02 09:11:29;;;;;;;6.15;5.13;;;10.00;99.90;;;;;;5030496;28;20400;-82
2023/01/02 09:13:57;;;;;;;5.18;3.80;;;10.00;99.90;;;;;;5010735;28;20420;-81
2023/01/02 09:16:24;;;;;;;5.20;4.25;;;9.90;99.90;;;;;;5055256;28;20029;-82
2023/01/02 09:18:51;;;;;;;5.03;4.30;;;9.90;99.90;;;;;;5032277;28;20052;-82
2023/01/02 09:21:18;;;;;;;5.60;4.15;;;9.90;99.90;;;;;;5027859;28;20045;-78
2023/01/02 09:23:44;;;;;;;7.30;5.18;;;9.80;99.90;;;;;;5037562;28;20404;-77
2023/01/02 09:26:11;;;;;;;4.82;3.85;;;9.80;99.90;;;;;;5044859;28;20044;-81
2023/01/02 09:28:38;;;;;;;6.13;4.45;;;9.80;99.90;;;;;;5026133;28;20491;-80
2023/01/02 09:31:06;;;;;;;7.47;5.28;;;9.80;99.90;;;;;;5012955;28;20120;-83
2023/01/02 09:33:33;;;;;;;4.78;3.60;;;9.80;99.90;;;;;;5039907;28;20033;-75
2023/01/02 09:36:01;;;;;;;8.93;4.97;;;9.80;99.90;;;;;;5035722;28;20404;-81
2023/01/02 09:38:27;;;;;;;5.15;3.80;;;9.80;99.90;;;;;;5011971;28;20041;-80
2023/01/02 09:40:54;;;;;;;6.72;4.07;;;9.80;99.90;;;;;;5024351;28;20049;-80
2023/01/02 09:43:35;;;;;;;6.30;4.45;;;9.80;99.90;;;;;;5037222;28;20036;-78
2023/01/02 09:46:04;;;;;;;6.30;4.55;;;9.80;99.90;;;;;;5035969;28;20041;-80
2023/01/02 09:48:34;;;;;;;4.70;3.58;;;9.80;99.90;;;;;;5043454;28;20033;-81
2023/01/02 09:51:03;;;;;;;8.68;5.43;;;9.80;99.90;;;;;;5003032;28;20414;-81
2023/01/02 09:53:32;;;;;;;8.35;5.18;;;9.80;99.90;;;;;;5033649;28;20640;-78
2023/01/02 09:56:06;;;;;;;6.95;4.90;;;9.80;99.90;;;;;;5015422;28;20036;-80
2023/01/02 09:58:36;;;;;;;8.52;5.47;;;9.80;99.90;;;;;;5028609;28;20037;-81
2023/01/02 10:01:04;;;;;;;7.18;4.75;;;9.80;99.90;;;;;;4997375;28;20057;-80
2023/01/02 10:03:53;;;;;;;6.65;5.10;;;9.90;99.90;;;;;;5029678;28;20037;-80
2023/01/02 10:06:29;;;;;;;7.80;5.00;;;10.00;99.90;;;;;;5010837;28;20037;-81
2023/01/02 10:09:04;;;;;;;8.23;6.32;;;10.10;99.90;;;;;;5034208;28;20044;-80
2023/01/02 10:11:52;;;;;;;6.40;5.75;;;10.10;99.90;;;;;;5005449;28;20037;-80
2023/01/02 10:14:43;;;;;;;9.07;7.85;;;10.10;99.90;;;;;;5038192;28;20044;-82
2023/01/02 10:17:12;;;;;;;7.57;6.63;;;10.10;99.90;;;;;;5042494;28;20076;-82
2023/01/02 10:20:07;;;;;;;6.88;5.65;;;10.10;99.90;;;;;;5031842;28;20393;-80
2023/01/02 10:22:48;;;;;;;7.95;6.45;;;10.10;99.90;;;;;;5039706;28;20041;-81
2023/01/02 10:25:21;;;;;;;6.18;5.55;;;10.00;99.90;;;;;;5026380;28;20024;-82
2023/01/02 10:28:20;;;;;;;5.55;4.90;;;10.00;99.90;;;;;;5038364;28;20033;-82
2023/01/02 10:30:53;;;;;;;7.05;3.92;;;10.00;99.90;;;;;;4987653;28;20054;-81
2023/01/02 10:33:52;;;;;;;5.22;3.50;;;9.90;99.90;;;;;;5035505;28;20036;-81
2023/01/02 10:36:40;;;;;;;8.23;3.53;;;10.00;99.90;;;;;;5028502;28;20029;-77
2023/01/02 10:39:12;;;;;;;7.32;3.58;;;10.10;99.90;;;;;;5009768;28;20401;-82
2023/01/02 10:41:39;;;;;;;3.67;2.78;;;10.00;99.90;;;;;;5015724;28;20037;-82
2023/01/02 10:44:16;;;;;;;4.97;2.50;;;10.10;99.90;;;;;;5029739;28;20045;-83
2023/01/02 10:46:42;;;;;;;6.20;2.53;;;10.10;99.90;;;;;;5013824;28;20042;-81
2023/01/02 10:49:10;;;;;;;4.47;2.78;;;10.10;99.90;;;;;;5027525;28;20496;-81
2023/01/02 10:51:41;;;;;;;6.22;2.78;;;10.20;99.90;;;;;;5008640;28;20045;-83
2023/01/02 10:54:08;;;;;;;5.43;2.45;;;10.20;99.90;;;;;;5028476;28;20045;-78
2023/01/02 10:56:38;;;;;;;4.18;1.73;;;10.20;99.90;;;;;;5017758;28;20047;-82
2023/01/02 10:59:20;;;;;;;7.32;3.17;;;10.20;99.90;;;;;;5027194;28;20045;-77
2023/01/02 11:01:52;;;;;;;7.05;1.88;;;10.20;99.90;;;;;;5021025;28;20029;-81
2023/01/02 11:04:22;;;;;;;4.63;1.42;;;10.20;99.90;;;;;;5027507;28;20041;-82
2023/01/02 11:06:53;;;;;;;4.20;1.75;;;10.20;99.90;;;;;;4993153;28;20382;-80
2023/01/02 11:09:21;;;;;;;11.80;2.08;;;10.20;99.90;;;;;;5024481;28;20036;-82
2023/01/02 11:11:54;;;;;;;5.55;1.58;;;10.20;99.90;;;;;;5010747;28;20041;-81
2023/01/02 11:14:23;;;;;;;6.30;1.27;;;10.20;99.90;;;;;;5017177;28;20044;-77
2023/01/02 11:16:50;;;;;;;5.15;1.85;;;10.30;99.90;;;;;;5034383;28;20064;-81
2023/01/02 11:19:21;;;;;;;5.75;1.73;;;10.30;99.90;;;;;;5040429;28;20040;-81
2023/01/02 11:21:48;;;;;;;3.60;1.67;;;10.30;99.90;;;;;;5022746;28;20044;-75
2023/01/02 11:24:18;;;;;;;5.97;1.60;;;10.30;99.90;;;;;;5036909;28;20033;-79
2023/01/02 11:26:48;;;;;;;6.40;2.40;;;10.40;99.90;;;;;;5018770;28;20037;-82
2023/01/02 11:29:28;;;;;;;5.22;2.00;;;10.40;99.90;;;;;;5030399;28;20040;-76
2023/01/02 11:31:58;;;;;;;5.10;1.70;;;10.50;99.90;;;;;;5026724;28;20471;-78
2023/01/02 11:34:37;;;;;;;5.13;2.33;;;10.60;99.90;;;;;;5012674;28;20041;-81
2023/01/02 11:37:12;;;;;;;5.50;2.15;;;10.60;99.90;;;;;;5012125;28;20041;-80
2023/01/02 11:39:40;;;;;;;8.48;2.47;;;10.60;99.90;;;;;;5028765;28;20044;-79
2023/01/02 11:45:09;;;;;;;5.85;2.15;;;10.70;99.90;;;;;;5027990;28;20037;-81
2023/01/02 11:47:47;;;;;;;4.40;1.55;;;10.60;99.90;;;;;;5021355;28;20420;-81
2023/01/02 11:50:28;;;;;;;3.67;1.83;;;10.70;99.90;;;;;;5008982;28;20052;-76
2023/01/02 11:53:05;;;;;;;6.57;1.90;;;10.70;99.90;;;;;;5030677;28;20048;-78
2023/01/02 11:55:33;;;;;;;7.20;1.58;;;10.60;99.90;;;;;;5034270;28;20605;-81
2023/01/02 11:58:26;;;;;;;5.00;1.17;;;10.70;99.90;;;;;;5039734;28;20036;-80
2023/01/02 12:01:04;;;;;;;4.28;1.27;;;10.70;99.90;;;;;;5026014;28;20239;-80
2023/01/02 12:03:32;;;;;;;4.22;1.50;;;10.70;99.90;;;;;;5013110;28;20045;-80
2023/01/02 12:06:19;;;;;;;6.75;1.10;;;10.70;99.90;;;;;;5022023;28;20033;-80
2023/01/02 12:09:03;;;;;;;4.18;1.15;;;10.70;99.90;;;;;;5029682;28;20047;-80
2023/01/02 12:11:40;;;;;;;3.65;0.65;;;10.60;99.90;;;;;;5026518;28;20037;-80
2023/01/02 12:14:15;;;;;;;3.28;1.13;;;10.70;99.90;;;;;;5018475;28;20033;-80
2023/01/02 12:16:55;;;;;;;4.93;0.93;;;10.70;99.90;;;;;;5037029;28;20049;-81
2023/01/02 12:19:54;;;;;;;4.35;0.88;;;10.70;99.90;;;;;;5015001;28;20034;-76
2023/01/02 12:22:45;;;;;;;4.95;1.60;;;10.70;99.90;;;;;;4984005;28;20528;-77
2023/01/02 12:25:36;;;;;;;6.63;2.10;;;10.70;99.90;;;;;;5018602;28;20037;-81
2023/01/02 12:28:11;;;;;;;5.30;1.92;;;10.70;99.90;;;;;;5026119;28;20408;-79
2023/01/02 12:31:00;;;;;;;7.72;3.40;;;10.70;99.90;;;;;;5028900;28;20053;-80
2023/01/02 12:34:08;;;;;;;7.75;3.08;;;10.70;99.90;;;;;;5030203;28;20033;-80
2023/01/02 12:36:46;;;;;;;9.27;4.05;;;10.60;99.90;;;;;;5047497;28;20029;-81
2023/01/02 12:39:33;;;;;;;9.32;3.72;;;10.60;99.90;;;;;;5038770;28;20029;-80
2023/01/02 12:42:09;;;;;;;6.10;4.28;;;10.60;99.90;;;;;;5013798;28;20401;-80
2023/01/02 12:44:55;;;;;;;6.15;3.78;;;10.60;99.90;;;;;;5024128;28;20037;-79
2023/01/02 12:47:33;;;;;;;7.50;3.88;;;10.60;99.90;;;;;;5015319;28;20494;-79
2023/01/02 12:50:38;;;;;;;5.18;3.97;;;10.60;99.90;;;;;;5031565;28;20037;-79
2023/01/02 12:53:31;;;;;;;8.40;4.35;;;10.60;99.90;;;;;;5035284;28;20033;-78
2023/01/02 12:56:12;;;;;;;7.95;3.85;;;10.60;99.90;;;;;;5007356;28;20041;-79
2023/01/02 12:59:03;;;;;;;6.93;2.70;;;10.50;99.90;;;;;;5032608;28;20064;-79
2023/01/02 13:01:47;;;;;;;6.03;2.72;;;10.50;99.90;;;;;;5024608;28;20618;-78
2023/01/02 13:04:27;;;;;;;9.52;3.72;;;10.50;99.90;;;;;;5015003;28;20033;-78
2023/01/02 13:07:30;;;;;;;10.95;5.78;;;10.60;99.90;;;;;;5015420;28;20050;-79
2023/01/02 13:10:01;;;;;;;4.70;3.00;;;10.50;99.90;;;;;;5008253;28;20253;-76
2023/01/02 13:12:30;;;;;;;8.13;3.20;;;10.50;99.90;;;;;;5027127;28;20410;-79
2023/01/02 13:15:19;;;;;;;7.22;4.32;;;10.50;99.90;;;;;;5029713;28;20045;-79
2023/01/02 13:17:48;;;;;;;7.82;3.10;;;10.50;99.90;;;;;;5033773;28;20063;-78